Oelwein, IA

3:33 PM CST on February 10, 2016 (GMT -0600)
Oelwein Municipal

Weather History for KOLZ - October, 2012

Change the Weather History Date:

Wednesday, October 10, 2012

  Actual Average (KALO) Record (KALO)
Temperature  
Mean Temperature 40 °F 52 °F  
Max Temperature 51 °F 65 °F 89 °F (1928)
Min Temperature 30 °F 40 °F 18 °F (1964)
Degree Days  
Heating Degree Days 24 13  
Month to date heating degree days 114  
Since 1 July heating degree days 272  
Cooling Degree Days 0 0  
Month to date cooling degree days 8  
Year to date cooling degree days 798  
Moisture  
Dew Point 25 °F    
Average Humidity 61    
Maximum Humidity 87    
Minimum Humidity 26    
Precipitation  
Precipitation 0.00 in 0.08 in 1.20 in (1961)
Month to date precipitation 0.86  
Year to date precipitation 29.77  
Snow  
Snow 0.00 in 0.00 in 0.50 in (1932)
Month to date snowfall 0.0  
Since 1 July snowfall 0.0  
Since 1 September snowfall 0.0  
Snow Depth -    
Sea Level Pressure  
Sea Level Pressure 30.09 in    
Wind  
Wind Speed 8 mph (West)    
Max Wind Speed 17 mph    
Max Gust Speed 24 mph    
Visibility 10 miles    
Events      
T = Trace of Precipitation, MM = Missing Value Source: NWS Daily Summary

Daily Weather History Graph

Daily Weather History Graph

Search for Another Location

Airport or City:

Trip Planner

Search our weather history database for the weather conditions in past years. The results will help you decide how hot, cold, wet, or windy it might be!

Date:

Astronomy

Oct. 10, 2012 Rise Set
Actual Time 7:15 AM CDT 6:32 PM CDT
Civil Twilight 6:47 AM CDT 7:01 PM CDT
Nautical Twilight 6:14 AM CDT 7:33 PM CDT
Astronomical Twilight 5:42 AM CDT 8:06 PM CDT
Moon 1:45 AM CDT 3:41 PM CDT
Length of Visible Light 12h 13m
Length of Day
11h 17m
Waning Crescent, 27% of the Moon is Illuminated
Oct 10
Waning Crescent
Oct 15
New
Oct 21
First Quarter
Oct 29
Full
Nov 6
Last Quarter

Hourly Weather History & Observations

Time (CDT) Temp. Windchill Dew Point Humidity Pressure Visibility Wind Dir Wind Speed Gust Speed Precip Events Conditions
12:15 AM 35.6 °F 29.9 °F 26.6 °F 70% 30.00 in 10.0 mi West 6.9 mph - N/A   Clear
12:34 AM 35.6 °F 29.2 °F 26.6 °F 70% 30.01 in 10.0 mi WNW 8.1 mph - N/A   Clear
12:35 AM 33.8 °F 27.0 °F 28.4 °F 81% 30.01 in 10.0 mi WNW 8.1 mph - N/A   Clear
12:54 AM 33.8 °F 27.0 °F 26.6 °F 75% 30.01 in 10.0 mi WNW 8.1 mph - N/A   Clear
12:55 AM 33.8 °F 27.0 °F 28.4 °F 81% 30.01 in 10.0 mi WNW 8.1 mph - N/A   Clear
1:14 AM 33.8 °F 26.4 °F 26.6 °F 75% 30.01 in 10.0 mi WNW 9.2 mph - N/A   Clear
1:15 AM 33.8 °F 26.4 °F 28.4 °F 81% 30.01 in 10.0 mi WNW 9.2 mph - N/A   Clear
1:34 AM 33.8 °F 26.4 °F 26.6 °F 75% 30.02 in 10.0 mi WNW 9.2 mph - N/A   Clear
1:35 AM 33.8 °F 26.4 °F 26.6 °F 75% 30.02 in 10.0 mi WNW 9.2 mph - N/A   Clear
1:55 AM 32.0 °F 24.2 °F 26.6 °F 80% 30.02 in 10.0 mi WNW 9.2 mph - N/A   Clear
1:57 AM 33.8 °F 27.0 °F 26.6 °F 75% 30.02 in 10.0 mi WNW 8.1 mph - N/A   Clear
2:14 AM 33.8 °F 26.4 °F 26.6 °F 75% 30.02 in 10.0 mi WNW 9.2 mph - N/A   Clear
2:15 AM 32.0 °F 24.8 °F 26.6 °F 80% 30.02 in 10.0 mi WNW 8.1 mph - N/A   Clear
2:34 AM 32.0 °F 24.8 °F 26.6 °F 80% 30.02 in 10.0 mi WNW 8.1 mph - N/A   Clear
2:35 AM 32.0 °F 24.8 °F 26.6 °F 80% 30.02 in 10.0 mi WNW 8.1 mph - N/A   Clear
2:54 AM 32.0 °F 24.2 °F 24.8 °F 75% 30.02 in 10.0 mi WNW 9.2 mph - N/A   Clear
2:55 AM 32.0 °F 24.2 °F 26.6 °F 80% 30.02 in 10.0 mi WNW 9.2 mph - N/A   Clear
3:14 AM 30.2 °F 22.6 °F 24.8 °F 80% 30.03 in 10.0 mi WNW 8.1 mph - N/A   Clear
3:15 AM 32.0 °F 24.2 °F 26.6 °F 80% 30.03 in 10.0 mi WNW 9.2 mph - N/A   Clear
3:34 AM 30.2 °F 22.6 °F 24.8 °F 80% 30.03 in 10.0 mi WNW 8.1 mph - N/A   Clear
3:35 AM 32.0 °F 24.8 °F 26.6 °F 80% 30.03 in 10.0 mi WNW 8.1 mph - N/A   Clear
3:54 AM 30.2 °F 22.6 °F 24.8 °F 80% 30.04 in 10.0 mi West 8.1 mph - N/A   Clear
3:55 AM 32.0 °F 24.2 °F 24.8 °F 75% 30.04 in 10.0 mi West 9.2 mph - N/A   Clear
4:14 AM 30.2 °F 21.9 °F 24.8 °F 80% 30.05 in 10.0 mi West 9.2 mph - N/A   Clear
4:15 AM 32.0 °F 24.2 °F 24.8 °F 75% 30.05 in 10.0 mi West 9.2 mph - N/A   Clear
4:34 AM 30.2 °F 21.9 °F 24.8 °F 80% 30.05 in 10.0 mi WNW 9.2 mph - N/A   Clear
4:35 AM 32.0 °F 24.2 °F 24.8 °F 75% 30.05 in 10.0 mi WNW 9.2 mph - N/A   Clear
4:54 AM 30.2 °F 22.6 °F 24.8 °F 80% 30.05 in 10.0 mi WNW 8.1 mph - N/A   Clear
4:55 AM 30.2 °F 23.4 °F 24.8 °F 80% 30.05 in 10.0 mi WNW 6.9 mph - N/A   Clear
5:14 AM 30.2 °F 22.6 °F 24.8 °F 80% 30.06 in 10.0 mi WNW 8.1 mph - N/A   Clear
5:15 AM 30.2 °F 22.6 °F 24.8 °F 80% 30.06 in 10.0 mi WNW 8.1 mph - N/A   Clear
5:34 AM 30.2 °F 22.6 °F 24.8 °F 80% 30.07 in 10.0 mi WNW 8.1 mph - N/A   Clear
5:35 AM 32.0 °F 24.8 °F 24.8 °F 75% 30.07 in 10.0 mi WNW 8.1 mph - N/A   Clear
5:54 AM 30.2 °F 23.4 °F 24.8 °F 80% 30.08 in 10.0 mi West 6.9 mph - N/A   Clear
5:55 AM 30.2 °F 23.4 °F 24.8 °F 80% 30.08 in 10.0 mi West 6.9 mph - N/A   Clear
6:14 AM 30.2 °F 24.3 °F 24.8 °F 80% 30.08 in 10.0 mi WNW 5.8 mph - N/A   Clear
6:15 AM 30.2 °F 24.3 °F 24.8 °F 80% 30.08 in 10.0 mi WNW 5.8 mph - N/A   Clear
6:34 AM 30.2 °F 26.7 °F 24.8 °F 80% 30.09 in 10.0 mi West 3.5 mph - N/A   Clear
6:35 AM 30.2 °F 25.4 °F 24.8 °F 80% 30.09 in 10.0 mi West 4.6 mph - N/A   Clear
6:54 AM 30.2 °F 26.7 °F 24.8 °F 80% 30.09 in 10.0 mi West 3.5 mph - N/A   Clear
6:55 AM 30.2 °F 26.7 °F 26.6 °F 86% 30.09 in 10.0 mi West 3.5 mph - N/A   Clear
7:14 AM 30.2 °F 26.7 °F 26.6 °F 86% 30.10 in 10.0 mi WSW 3.5 mph - N/A   Clear
7:15 AM 32.0 °F 28.7 °F 26.6 °F 80% 30.10 in 10.0 mi WSW 3.5 mph - N/A   Clear
7:34 AM 30.2 °F 26.7 °F 26.6 °F 86% 30.11 in 10.0 mi West 3.5 mph - N/A   Clear
7:35 AM 32.0 °F 28.7 °F 26.6 °F 80% 30.11 in 10.0 mi West 3.5 mph - N/A   Clear
7:55 AM 32.0 °F 28.7 °F 26.6 °F 80% 30.12 in 10.0 mi West 3.5 mph - N/A   Clear
8:14 AM 32.0 °F 27.5 °F 26.6 °F 80% 30.12 in 10.0 mi West 4.6 mph - N/A   Clear
8:15 AM 32.0 °F 27.5 °F 28.4 °F 87% 30.12 in 10.0 mi West 4.6 mph - N/A   Clear
8:34 AM 33.8 °F 28.6 °F 26.6 °F 75% 30.13 in 10.0 mi West 5.8 mph - N/A   Clear
8:35 AM 33.8 °F 29.6 °F 28.4 °F 81% 30.13 in 10.0 mi West 4.6 mph - N/A   Clear
8:54 AM 35.6 °F 31.7 °F 26.6 °F 70% 30.13 in 10.0 mi West 4.6 mph - N/A   Clear
8:55 AM 33.8 °F 29.6 °F 28.4 °F 81% 30.13 in 10.0 mi West 4.6 mph - N/A   Clear
9:14 AM 37.4 °F 33.8 °F 26.6 °F 65% 30.13 in 10.0 mi West 4.6 mph - N/A   Clear
9:15 AM 35.6 °F 31.7 °F 28.4 °F 75% 30.13 in 10.0 mi West 4.6 mph - N/A   Clear
9:34 AM 37.4 °F 32.1 °F 28.4 °F 70% 30.14 in 10.0 mi West 6.9 mph - N/A   Clear
9:35 AM 37.4 °F 32.1 °F 28.4 °F 70% 30.14 in 10.0 mi West 6.9 mph - N/A   Clear
9:55 AM 39.2 °F 35.0 °F 30.2 °F 70% 30.15 in 10.0 mi West 5.8 mph - N/A   Clear
10:14 AM 42.8 °F 37.0 °F 28.4 °F 57% 30.16 in 10.0 mi NW 10.4 mph - N/A   Clear
10:15 AM 41.0 °F 35.2 °F 30.2 °F 65% 30.16 in 10.0 mi NW 9.2 mph - N/A   Clear
10:34 AM 41.0 °F 35.8 °F 28.4 °F 61% 30.16 in 10.0 mi WNW 8.1 mph - N/A   Clear
10:35 AM 41.0 °F 35.8 °F 30.2 °F 65% 30.16 in 10.0 mi WNW 8.1 mph - N/A   Clear
10:54 AM 42.8 °F 38.0 °F 28.4 °F 57% 30.16 in 10.0 mi West 8.1 mph - N/A   Clear
10:55 AM 42.8 °F 37.5 °F 30.2 °F 61% 30.16 in 10.0 mi WNW 9.2 mph - N/A   Clear
11:14 AM 44.6 °F 39.2 °F 28.4 °F 53% 30.16 in 10.0 mi WNW 10.4 mph - N/A   Clear
11:15 AM 44.6 °F 39.7 °F 30.2 °F 57% 30.16 in 10.0 mi WNW 9.2 mph - N/A   Clear
11:34 AM 44.6 °F 38.4 °F 28.4 °F 53% 30.16 in 10.0 mi WNW 12.7 mph 18.4 mph N/A   Clear
11:35 AM 44.6 °F 38.8 °F 30.2 °F 57% 30.16 in 10.0 mi WNW 11.5 mph 18.4 mph N/A   Clear
11:54 AM 44.6 °F 39.7 °F 26.6 °F 49% 30.16 in 10.0 mi NW 9.2 mph 20.7 mph N/A   Clear
11:55 AM 44.6 °F 39.7 °F 26.6 °F 49% 30.16 in 10.0 mi NW 9.2 mph 20.7 mph N/A   Clear
12:15 PM 44.6 °F 37.8 °F 26.6 °F 49% 30.16 in 10.0 mi WNW 15.0 mph 19.6 mph N/A   Clear
12:16 PM 46.4 °F 41.1 °F 26.6 °F 46% 30.16 in 10.0 mi WNW 11.5 mph 19.6 mph N/A   Clear
12:34 PM 46.4 °F 39.8 °F 24.8 °F 43% 30.16 in 10.0 mi WNW 16.1 mph 19.6 mph N/A   Clear
12:35 PM 46.4 °F 40.1 °F 26.6 °F 46% 30.16 in 10.0 mi WNW 15.0 mph 20.7 mph N/A   Clear
12:54 PM 48.2 °F - 24.8 °F 40% 30.16 in 10.0 mi WNW 15.0 mph 21.9 mph N/A   Clear
12:55 PM 46.4 °F 40.1 °F 24.8 °F 43% 30.16 in 10.0 mi NW 15.0 mph 21.9 mph N/A   Clear
1:14 PM 48.2 °F - 23.0 °F 37% 30.15 in 10.0 mi NW 17.3 mph 23.0 mph N/A   Clear
1:15 PM 48.2 °F - 23.0 °F 37% 30.15 in 10.0 mi NW 16.1 mph 23.0 mph N/A   Clear
1:34 PM 48.2 °F - 21.2 °F 34% 30.15 in 10.0 mi NW 16.1 mph 24.2 mph N/A   Clear
1:35 PM 48.2 °F - 21.2 °F 34% 30.15 in 10.0 mi NW 16.1 mph 24.2 mph N/A   Clear
1:54 PM 50.0 °F - 21.2 °F 32% 30.14 in 10.0 mi West 13.8 mph 19.6 mph N/A   Clear
1:55 PM 50.0 °F - 21.2 °F 32% 30.14 in 10.0 mi West 13.8 mph 19.6 mph N/A   Clear
2:14 PM 50.0 °F - 19.4 °F 30% 30.13 in 10.0 mi West 13.8 mph 23.0 mph N/A   Clear
2:15 PM 50.0 °F - 21.2 °F 32% 30.13 in 10.0 mi West 13.8 mph - N/A   Clear
2:34 PM 48.2 °F - 19.4 °F 32% 30.13 in 10.0 mi WNW 10.4 mph - N/A   Clear
2:35 PM 48.2 °F - 21.2 °F 34% 30.13 in 10.0 mi WNW 9.2 mph - N/A   Clear
2:54 PM 51.8 °F - 19.4 °F 28% 30.13 in 10.0 mi WNW 13.8 mph 20.7 mph N/A   Clear
2:55 PM 50.0 °F - 21.2 °F 32% 30.13 in 10.0 mi WNW 13.8 mph 20.7 mph N/A   Clear
3:14 PM 51.8 °F - 19.4 °F 28% 30.12 in 10.0 mi WNW 12.7 mph 21.9 mph N/A   Clear
3:15 PM 50.0 °F - 19.4 °F 30% 30.12 in 10.0 mi WNW 11.5 mph 21.9 mph N/A   Clear
3:34 PM 50.0 °F - 17.6 °F 28% 30.12 in 10.0 mi WNW 12.7 mph - N/A   Clear
3:35 PM 50.0 °F - 19.4 °F 30% 30.12 in 10.0 mi WNW 13.8 mph - N/A   Clear
3:54 PM 51.8 °F - 17.6 °F 26% 30.12 in 10.0 mi West 10.4 mph 17.3 mph N/A   Clear
3:55 PM 50.0 °F - 19.4 °F 30% 30.12 in 10.0 mi West 10.4 mph 17.3 mph N/A   Clear
4:14 PM 51.8 °F - 17.6 °F 26% 30.11 in 10.0 mi West 11.5 mph 18.4 mph N/A   Clear
4:15 PM 50.0 °F - 17.6 °F 28% 30.11 in 10.0 mi WNW 11.5 mph - N/A   Clear
4:34 PM 51.8 °F - 17.6 °F 26% 30.11 in 10.0 mi WSW 6.9 mph - N/A   Clear
4:35 PM 50.0 °F - 19.4 °F 30% 30.10 in 10.0 mi West 8.1 mph - N/A   Clear
4:54 PM 51.8 °F - 19.4 °F 28% 30.10 in 10.0 mi WSW 11.5 mph 16.1 mph N/A   Clear
4:55 PM 50.0 °F - 19.4 °F 30% 30.10 in 10.0 mi WSW 11.5 mph 16.1 mph N/A   Clear
5:14 PM 50.0 °F - 19.4 °F 30% 30.10 in 10.0 mi WSW 9.2 mph - N/A   Clear
5:15 PM 50.0 °F - 21.2 °F 32% 30.10 in 10.0 mi WSW 9.2 mph - N/A   Clear
5:34 PM 50.0 °F - 19.4 °F 30% 30.10 in 10.0 mi WSW 9.2 mph - N/A   Clear
5:35 PM 50.0 °F - 21.2 °F 32% 30.10 in 10.0 mi WSW 9.2 mph - N/A   Clear
5:54 PM 48.2 °F - 19.4 °F 32% 30.09 in 10.0 mi WSW 6.9 mph - N/A   Clear
5:55 PM 48.2 °F - 21.2 °F 34% 30.09 in 10.0 mi WSW 5.8 mph - N/A   Clear
6:14 PM 46.4 °F 45.2 °F 21.2 °F 37% 30.09 in 10.0 mi WSW 3.5 mph - N/A   Clear
6:15 PM 46.4 °F 45.2 °F 23.0 °F 40% 30.09 in 10.0 mi WSW 3.5 mph - N/A   Clear
6:34 PM 42.8 °F 40.1 °F 24.8 °F 49% 30.09 in 10.0 mi SW 4.6 mph - N/A   Clear
6:35 PM 41.0 °F 38.0 °F 24.8 °F 53% 30.09 in 10.0 mi SW 4.6 mph - N/A   Clear
6:54 PM 41.0 °F 38.0 °F 24.8 °F 53% 30.09 in 10.0 mi SSW 4.6 mph - N/A   Clear
6:55 PM 41.0 °F 38.0 °F 24.8 °F 53% 30.09 in 10.0 mi SSW 4.6 mph - N/A   Clear
7:14 PM 39.2 °F 35.0 °F 24.8 °F 56% 30.09 in 10.0 mi South 5.8 mph - N/A   Clear
7:15 PM 37.4 °F 32.8 °F 26.6 °F 65% 30.09 in 10.0 mi South 5.8 mph - N/A   Clear
7:34 PM 37.4 °F 33.8 °F 24.8 °F 60% 30.09 in 10.0 mi SSE 4.6 mph - N/A   Clear
7:35 PM 35.6 °F 31.7 °F 26.6 °F 70% 30.09 in 10.0 mi SSE 4.6 mph - N/A   Clear
7:54 PM 37.4 °F 33.8 °F 24.8 °F 60% 30.10 in 10.0 mi SSE 4.6 mph - N/A   Clear
7:55 PM 37.4 °F 33.8 °F 24.8 °F 60% 30.10 in 10.0 mi SSE 4.6 mph - N/A   Clear
8:14 PM 37.4 °F 32.8 °F 24.8 °F 60% 30.09 in 10.0 mi SSE 5.8 mph - N/A   Clear
8:15 PM 35.6 °F 30.7 °F 24.8 °F 65% 30.09 in 10.0 mi SSE 5.8 mph - N/A   Clear
8:34 PM 37.4 °F 32.8 °F 24.8 °F 60% 30.09 in 10.0 mi SSE 5.8 mph - N/A   Clear
8:35 PM 35.6 °F 30.7 °F 26.6 °F 70% 30.09 in 10.0 mi SSE 5.8 mph - N/A   Clear
8:54 PM 33.8 °F 28.6 °F 24.8 °F 70% 30.08 in 10.0 mi South 5.8 mph - N/A   Clear
8:55 PM 33.8 °F 28.6 °F 26.6 °F 75% 30.08 in 10.0 mi South 5.8 mph - N/A   Clear
9:15 PM 35.6 °F 30.7 °F 26.6 °F 70% 30.08 in 10.0 mi South 5.8 mph - N/A   Clear
9:16 PM 35.6 °F 30.7 °F 24.8 °F 65% 30.08 in 10.0 mi South 5.8 mph - N/A   Clear
9:35 PM 35.6 °F 30.7 °F 26.6 °F 70% 30.07 in 10.0 mi SSE 5.8 mph - N/A   Clear
9:55 PM 35.6 °F 30.7 °F 26.6 °F 70% 30.07 in 10.0 mi SSE 5.8 mph - N/A   Clear
10:15 PM 35.6 °F 30.7 °F 26.6 °F 70% 30.07 in 10.0 mi SSE 5.8 mph - N/A   Clear
10:34 PM 35.6 °F 30.7 °F 24.8 °F 65% 30.07 in 10.0 mi SSE 5.8 mph - N/A   Clear
10:35 PM 33.8 °F 28.6 °F 26.6 °F 75% 30.07 in 10.0 mi SSE 5.8 mph - N/A   Clear
10:54 PM 35.6 °F 30.7 °F 24.8 °F 65% 30.07 in 10.0 mi SSE 5.8 mph - N/A   Clear
10:55 PM 33.8 °F 28.6 °F 26.6 °F 75% 30.07 in 10.0 mi SSE 5.8 mph - N/A   Clear
11:15 PM 35.6 °F 29.9 °F 26.6 °F 70% 30.06 in 10.0 mi SSE 6.9 mph - N/A   Clear
11:34 PM 37.4 °F 30.8 °F 24.8 °F 60% 30.06 in 10.0 mi SSE 9.2 mph - N/A   Clear
11:35 PM 35.6 °F 28.6 °F 24.8 °F 65% 30.06 in 10.0 mi SSE 9.2 mph - N/A   Clear
11:54 PM 35.6 °F 30.7 °F 24.8 °F 65% 30.05 in 10.0 mi South 5.8 mph - N/A   Clear
11:55 PM 35.6 °F 30.7 °F 24.8 °F 65% 30.05 in 10.0 mi South 5.8 mph - N/A   Clear